Terminal Aerodrome Forecast
Issued by NWS Cheyenne, WY

Home | Current Version | Previous Version | Text Only | Print | Product List | Glossary On
Versions: 1 2 3 4 5 6 7 8 9 10 11 12 13 14 15 16 17 18 19 20 21 22 23 24 25 26 27 28 29 30 31 32 33
000
FTUS45 KCYS 261122
TAFCYS
TAF
KCYS 261122Z 2612/2712 19008KT P6SM FEW100
     FM261500 16012G22KT P6SM SCT100
     FM261900 17015G25KT P6SM -SHRA VCTS BKN050CB OVC100
     FM270300 36012G19KT P6SM VCSH OVC050
     FM270600 35010KT 5SM -SHRA BR BKN010 OVC025=

USA.gov is the U.S. government's official web portal to all federal, state and local government web resources and services.